Time;durP1;ratioP1;P1;durP2;ratioP2;P2;SDS_P1;SDS_P2;PMS_P1;PMS_P2;Temp;Humidity;BMP_temperature;BMP_pressure;BME280_temperature;BME280_humidity;BME280_pressure;Samples;Min_cycle;Max_cycle;Signal;HPM_P1;HPM_P2
2023/03/22 00:02:03;;;;;;;;;;;;;;;14.27;51.62;98452.41;5116701;27;19916;-82
2023/03/22 00:04:29;;;;;;;;;;;;;;;14.27;51.71;98456.84;5116721;27;19920;-82
2023/03/22 00:06:55;;;;;;;;;;;;;;;14.26;51.81;98466.53;5099771;27;19926;-82
2023/03/22 00:09:20;;;;;;;;;;;;;;;14.26;51.98;98466.53;5098910;27;20316;-82
2023/03/22 00:11:49;;;;;;;;;;;;;;;14.26;51.84;98466.53;5116449;27;19916;-83
2023/03/22 00:14:15;;;;;;;;;;;;;;;14.27;51.95;98478.66;5115872;27;20117;-82
2023/03/22 00:16:40;;;;;;;;;;;;;;;14.26;52.06;98487.53;5098572;27;19916;-82
2023/03/22 00:19:05;;;;;;;;;;;;;;;14.28;52.03;98480.34;5098723;27;20378;-83
2023/03/22 00:21:31;;;;;;;;;;;;;;;14.29;51.82;98475.91;5115893;27;19931;-83
2023/03/22 00:23:56;;;;;;;;;;;;;;;14.30;52.01;98478.38;5099088;27;19916;-83
2023/03/22 00:26:21;;;;;;;;;;;;;;;14.30;52.05;98477.56;5116253;27;19922;-83
2023/03/22 00:28:47;;;;;;;;;;;;;;;14.27;52.02;98467.34;5099051;27;19923;-83
2023/03/22 00:31:12;;;;;;;;;;;;;;;14.29;52.19;98470.66;5098921;27;19916;-83
2023/03/22 00:33:37;;;;;;;;;;;;;;;14.32;52.04;98475.59;5134553;27;19923;-84
2023/03/22 00:36:03;;;;;;;;;;;;;;;14.29;52.30;98468.03;5099055;27;20398;-83
2023/03/22 00:38:35;;;;;;;;;;;;;;;14.30;52.34;98467.06;5098657;27;19919;-84
2023/03/22 00:41:06;;;;;;;;;;;;;;;14.29;52.36;98462.78;5117627;27;19919;-84
2023/03/22 00:43:31;;;;;;;;;;;;;;;14.30;52.22;98464.44;5099026;27;19915;-84
2023/03/22 00:45:57;;;;;;;;;;;;;;;14.27;52.47;98465.53;5116680;27;19922;-84
2023/03/22 00:48:22;;;;;;;;;;;;;;;14.26;52.31;98463.91;5116430;27;20390;-82
2023/03/22 00:50:47;;;;;;;;;;;;;;;14.26;52.33;98471.78;5116945;27;19923;-82
2023/03/22 00:53:13;;;;;;;;;;;;;;;14.23;52.34;98474.69;5100453;27;19964;-82
2023/03/22 00:55:38;;;;;;;;;;;;;;;14.23;52.66;98486.97;5099183;27;20012;-84
2023/03/22 00:58:03;;;;;;;;;;;;;;;14.20;52.70;98484.66;5116024;27;19915;-83
2023/03/22 01:00:30;;;;;;;;;;;;;;;14.19;52.53;98488.25;5098458;27;20010;-83
2023/03/22 01:02:58;;;;;;;;;;;;;;;14.17;52.68;98484.94;5115427;27;19980;-82
2023/03/22 01:05:24;;;;;;;;;;;;;;;14.15;52.66;98479.84;5116048;27;19915;-83
2023/03/22 01:07:54;;;;;;;;;;;;;;;14.15;52.87;98482.47;5115520;27;19973;-84
2023/03/22 01:10:19;;;;;;;;;;;;;;;14.12;52.60;98474.88;5098959;27;19916;-83
2023/03/22 01:12:45;;;;;;;;;;;;;;;14.10;52.96;98474.19;5115135;27;20404;-83
2023/03/22 01:15:11;;;;;;;;;;;;;;;14.09;52.88;98465.50;5115561;27;19915;-83
2023/03/22 01:17:36;;;;;;;;;;;;;;;14.08;52.96;98463.03;5096490;27;19915;-82
2023/03/22 01:20:01;;;;;;;;;;;;;;;14.07;53.14;98462.22;5097663;27;20456;-84
2023/03/22 01:22:26;;;;;;;;;;;;;;;14.06;53.13;98470.25;5114470;28;20071;-83
2023/03/22 01:24:52;;;;;;;;;;;;;;;14.05;53.22;98468.56;5098696;27;19944;-83
2023/03/22 01:27:17;;;;;;;;;;;;;;;14.06;53.34;98467.63;5097962;27;20335;-83
2023/03/22 01:29:42;;;;;;;;;;;;;;;14.03;53.22;98457.41;5115200;28;19923;-83
2023/03/22 01:32:08;;;;;;;;;;;;;;;14.04;53.22;98454.63;5115359;28;20345;-83
2023/03/22 01:34:33;;;;;;;;;;;;;;;14.02;53.28;98451.31;5115400;28;19915;-82
2023/03/22 01:36:58;;;;;;;;;;;;;;;14.01;53.27;98448.81;5098034;28;19922;-83
2023/03/22 01:39:25;;;;;;;;;;;;;;;14.00;53.59;98444.56;5098114;28;19923;-83
2023/03/22 01:41:50;;;;;;;;;;;;;;;13.99;53.42;98445.53;5098372;28;19915;-83
2023/03/22 01:44:16;;;;;;;;;;;;;;;13.98;53.68;98446.50;5098289;28;19915;-83
2023/03/22 01:46:42;;;;;;;;;;;;;;;13.98;53.59;98439.47;5115479;28;19920;-83
2023/03/22 01:49:11;;;;;;;;;;;;;;;13.97;53.66;98432.56;5115182;28;19968;-84
2023/03/22 01:51:37;;;;;;;;;;;;;;;13.97;53.74;98437.00;5115362;28;20022;-83
2023/03/22 01:54:04;;;;;;;;;;;;;;;13.97;53.89;98437.81;5115207;28;19947;-83
2023/03/22 01:56:30;;;;;;;;;;;;;;;13.97;53.89;98434.38;5115429;28;19915;-83
2023/03/22 01:58:55;;;;;;;;;;;;;;;13.98;53.89;98428.13;5114429;28;19943;-83
2023/03/22 02:01:21;;;;;;;;;;;;;;;14.00;54.10;98428.81;5115381;28;20014;-83
2023/03/22 02:03:46;;;;;;;;;;;;;;;13.98;54.09;98425.50;5114859;28;19922;-83
2023/03/22 02:06:12;;;;;;;;;;;;;;;13.98;54.12;98425.50;5116398;27;19959;-83
2023/03/22 02:08:39;;;;;;;;;;;;;;;13.99;54.08;98427.16;5119170;27;19923;-83
2023/03/22 02:11:04;;;;;;;;;;;;;;;13.98;54.12;98421.09;5102172;27;20059;-84
2023/03/22 02:13:37;;;;;;;;;;;;;;;13.98;54.01;98417.63;5118918;27;19960;-83
2023/03/22 02:16:03;;;;;;;;;;;;;;;13.98;54.26;98425.50;5118991;27;20018;-83
2023/03/22 02:18:42;;;;;;;;;;;;;;;13.97;54.23;98426.50;5118851;27;19995;-83
2023/03/22 02:21:19;;;;;;;;;;;;;;;13.96;54.24;98412.53;5101347;27;19920;-83
2023/03/22 02:24:05;;;;;;;;;;;;;;;13.94;54.56;98419.72;5118846;27;19916;-83
2023/03/22 02:26:38;;;;;;;;;;;;;;;13.95;54.34;98421.38;5119029;27;20326;-83
2023/03/22 02:29:07;;;;;;;;;;;;;;;13.94;54.44;98412.69;5137120;27;19931;-83
2023/03/22 02:31:38;;;;;;;;;;;;;;;13.92;54.54;98417.25;5118649;27;19919;-83
2023/03/22 02:34:17;;;;;;;;;;;;;;;13.91;54.62;98409.53;5136941;27;19922;-83
2023/03/22 02:36:42;;;;;;;;;;;;;;;13.91;54.69;98414.78;5118638;27;19915;-83
2023/03/22 02:39:20;;;;;;;;;;;;;;;13.91;54.76;98420.84;5136921;27;19922;-83
2023/03/22 02:41:57;;;;;;;;;;;;;;;13.91;54.81;98415.59;5137087;27;20010;-83
2023/03/22 02:44:22;;;;;;;;;;;;;;;13.90;54.71;98418.38;5118437;27;19926;-83
2023/03/22 02:46:57;;;;;;;;;;;;;;;13.91;54.58;98423.47;5118721;27;19915;-83
2023/03/22 02:49:29;;;;;;;;;;;;;;;13.90;54.86;98418.38;5118375;27;19926;-82
2023/03/22 02:51:57;;;;;;;;;;;;;;;13.91;54.83;98418.22;5136848;27;19922;-83
2023/03/22 02:54:27;;;;;;;;;;;;;;;13.92;54.90;98419.88;5101722;27;20290;-83
2023/03/22 02:56:54;;;;;;;;;;;;;;;13.92;54.89;98416.44;5136585;27;19915;-83
2023/03/22 02:59:20;;;;;;;;;;;;;;;13.88;55.03;98415.06;5118343;27;19919;-83
2023/03/22 03:01:47;;;;;;;;;;;;;;;13.87;54.87;98401.13;5117228;27;19926;-83
2023/03/22 03:04:16;;;;;;;;;;;;;;;13.86;54.92;98402.09;5117539;27;19916;-83
2023/03/22 03:06:44;;;;;;;;;;;;;;;13.84;55.14;98396.16;5117916;27;19969;-83
2023/03/22 03:09:12;;;;;;;;;;;;;;;13.84;55.23;98395.34;5118624;27;19989;-82
2023/03/22 03:11:37;;;;;;;;;;;;;;;13.85;55.22;98394.38;5118303;27;19922;-83
2023/03/22 03:14:03;;;;;;;;;;;;;;;13.85;55.05;98400.47;5117677;27;19915;-81
2023/03/22 03:16:29;;;;;;;;;;;;;;;13.81;55.33;98401.72;5118085;27;19916;-82
2023/03/22 03:19:24;;;;;;;;;;;;;;;13.78;55.47;98407.25;5117351;27;19937;-83
2023/03/22 03:21:52;;;;;;;;;;;;;;;13.76;55.64;98422.31;5086625;28;19923;-83
2023/03/22 03:24:36;;;;;;;;;;;;;;;13.72;55.71;98416.50;5076027;28;20364;-83
2023/03/22 03:27:03;;;;;;;;;;;;;;;13.70;55.45;98421.09;5092926;28;19916;-82
2023/03/22 03:29:31;;;;;;;;;;;;;;;13.68;55.53;98419.59;5076169;28;20295;-83
2023/03/22 03:32:11;;;;;;;;;;;;;;;13.64;55.58;98415.59;5075789;28;19916;-82
2023/03/22 03:35:02;;;;;;;;;;;;;;;13.63;55.72;98430.50;5092715;28;19927;-82
2023/03/22 03:37:29;;;;;;;;;;;;;;;13.61;55.76;98423.75;5088197;28;20430;-82
2023/03/22 03:39:57;;;;;;;;;;;;;;;13.59;55.38;98421.28;5055753;28;19921;-82
2023/03/22 03:42:23;;;;;;;;;;;;;;;13.59;55.85;98415.22;5055510;28;19947;-81
2023/03/22 03:44:48;;;;;;;;;;;;;;;13.57;55.52;98418.78;5055200;28;20415;-82
2023/03/22 03:47:13;;;;;;;;;;;;;;;13.57;55.72;98426.66;5055404;28;19923;-81
2023/03/22 03:49:39;;;;;;;;;;;;;;;13.55;55.49;98417.28;5072257;28;20326;-82
2023/03/22 03:52:04;;;;;;;;;;;;;;;13.54;55.66;98415.63;5092282;28;19916;-82
2023/03/22 03:54:30;;;;;;;;;;;;;;;13.50;55.93;98420.31;5075267;28;19917;-83
2023/03/22 03:56:55;;;;;;;;;;;;;;;13.48;55.53;98419.66;5075331;28;20367;-82
2023/03/22 03:59:20;;;;;;;;;;;;;;;13.48;55.57;98418.84;5114311;27;19915;-82
2023/03/22 04:01:49;;;;;;;;;;;;;;;13.48;55.70;98427.50;5117002;27;19922;-82
2023/03/22 04:04:15;;;;;;;;;;;;;;;13.48;55.86;98434.56;5099985;27;19915;-84
2023/03/22 04:06:41;;;;;;;;;;;;;;;13.48;55.69;98431.94;5099482;27;19916;-83
2023/03/22 04:09:06;;;;;;;;;;;;;;;13.47;55.72;98439.00;5116940;27;19916;-83
2023/03/22 04:11:32;;;;;;;;;;;;;;;13.47;56.04;98444.25;5116601;27;20014;-82
2023/03/22 04:13:57;;;;;;;;;;;;;;;13.47;55.70;98436.38;5116640;27;19975;-83
2023/03/22 04:16:23;;;;;;;;;;;;;;;13.48;55.85;98440.63;5100104;27;19915;-79
2023/03/22 04:18:49;;;;;;;;;;;;;;;13.73;62.49;98430.47;5099530;27;19954;-82
2023/03/22 04:21:15;;;;;;;;;;;;;;;13.75;60.41;98437.22;5134785;27;19915;-81
2023/03/22 04:23:40;;;;;;;;;;;;;;;13.77;59.44;98433.63;5116376;27;19972;-79
2023/03/22 04:26:06;;;;;;;;;;;;;;;13.77;59.45;98449.38;5134250;27;19922;-85
2023/03/22 04:28:32;;;;;;;;;;;;;;;13.75;58.89;98446.88;5134757;27;19938;-83
2023/03/22 04:30:58;;;;;;;;;;;;;;;13.73;58.51;98448.84;5098612;27;19923;-84
2023/03/22 04:33:23;;;;;;;;;;;;;;;13.71;58.25;98450.75;5099369;27;19915;-86
2023/03/22 04:35:49;;;;;;;;;;;;;;;13.72;61.10;98457.66;5116594;27;19920;-88
2023/03/22 04:38:15;;;;;;;;;;;;;;;13.77;59.74;98470.34;5098878;27;19919;-81
2023/03/22 04:40:45;;;;;;;;;;;;;;;13.76;59.34;98482.66;5115466;27;19920;-82
2023/03/22 04:43:10;;;;;;;;;;;;;;;13.73;58.81;98490.81;5099537;27;19945;-82
2023/03/22 04:45:36;;;;;;;;;;;;;;;13.69;58.47;98492.88;5116698;27;19915;-74
2023/03/22 04:48:06;;;;;;;;;;;;;;;13.74;60.01;98498.53;5123992;28;19920;-81
2023/03/22 04:50:31;;;;;;;;;;;;;;;13.81;59.59;98500.59;5102059;28;19916;-81
2023/03/22 04:52:57;;;;;;;;;;;;;;;13.77;59.30;98499.19;5095688;28;20275;-79
2023/03/22 04:55:22;;;;;;;;;;;;;;;13.69;59.06;98500.72;5113807;28;20397;-77
2023/03/22 04:57:47;;;;;;;;;;;;;;;13.64;58.76;98499.53;5095725;28;19923;-77
2023/03/22 05:00:14;;;;;;;;;;;;;;;13.60;58.98;98503.38;5079055;28;20306;-77
2023/03/22 05:02:39;;;;;;;;;;;;;;;13.55;58.53;98494.16;5095829;28;19916;-77
2023/03/22 05:05:05;;;;;;;;;;;;;;;13.51;58.77;98500.66;5078405;28;19926;-76
2023/03/22 05:07:30;;;;;;;;;;;;;;;13.54;61.73;98505.63;5078402;28;19988;-77
2023/03/22 05:09:55;;;;;;;;;;;;;;;13.60;61.91;98503.38;5078504;28;19915;-84
2023/03/22 05:12:21;;;;;;;;;;;;;;;13.72;62.28;98508.31;5114230;28;19916;-82
2023/03/22 05:14:46;;;;;;;;;;;;;;;13.75;61.28;98515.09;5113228;28;19980;-76
2023/03/22 05:17:11;;;;;;;;;;;;;;;13.76;60.65;98516.75;5095328;28;20365;-79
2023/03/22 05:19:37;;;;;;;;;;;;;;;13.77;59.97;98510.50;5078339;28;20368;-79
2023/03/22 05:22:02;;;;;;;;;;;;;;;13.77;59.59;98507.06;5094703;28;20461;-79
2023/03/22 05:24:28;;;;;;;;;;;;;;;13.77;59.09;98509.69;5094820;28;20010;-80
2023/03/22 05:26:54;;;;;;;;;;;;;;;13.77;58.72;98525.44;5113308;28;20387;-79
2023/03/22 05:29:20;;;;;;;;;;;;;;;13.77;58.49;98522.81;5095147;28;19924;-79
2023/03/22 05:31:45;;;;;;;;;;;;;;;13.76;58.16;98522.00;5076468;28;20393;-80
2023/03/22 05:34:10;;;;;;;;;;;;;;;13.75;57.75;98533.44;5101428;28;19916;-81
2023/03/22 05:36:36;;;;;;;;;;;;;;;13.72;57.68;98528.47;5074665;28;19923;-81
2023/03/22 05:39:01;;;;;;;;;;;;;;;13.73;57.29;98514.41;5074421;28;19963;-79
2023/03/22 05:41:26;;;;;;;;;;;;;;;13.73;57.27;98517.84;5078178;28;19916;-80
2023/03/22 05:43:52;;;;;;;;;;;;;;;13.74;57.35;98529.16;5080951;28;20299;-78
2023/03/22 05:46:17;;;;;;;;;;;;;;;13.77;56.79;98546.44;5081540;28;19923;-82
2023/03/22 05:48:43;;;;;;;;;;;;;;;13.79;56.52;98552.34;5087412;28;19970;-81
2023/03/22 05:51:08;;;;;;;;;;;;;;;13.79;56.50;98555.81;5098009;28;19920;-83
2023/03/22 05:53:34;;;;;;;;;;;;;;;13.80;55.94;98556.63;5101635;28;20014;-80
2023/03/22 05:55:59;;;;;;;;;;;;;;;13.82;55.67;98562.56;5101290;28;19998;-78
2023/03/22 05:58:29;;;;;;;;;;;;;;;13.82;55.67;98558.16;5119879;28;19920;-76
2023/03/22 06:00:54;;;;;;;;;;;;;;;13.86;55.48;98569.19;5085144;28;19916;-80
2023/03/22 06:03:20;;;;;;;;;;;;;;;13.86;55.33;98563.94;5119875;28;20000;-80
2023/03/22 06:05:49;;;;;;;;;;;;;;;13.86;55.18;98564.75;5080959;28;19919;-80
2023/03/22 06:08:15;;;;;;;;;;;;;;;13.89;55.14;98564.47;5083683;28;20002;-82
2023/03/22 06:10:40;;;;;;;;;;;;;;;13.93;55.15;98563.22;5083590;28;19955;-80
2023/03/22 06:13:05;;;;;;;;;;;;;;;13.95;55.03;98568.34;5101113;28;19920;-80
2023/03/22 06:15:31;;;;;;;;;;;;;;;13.96;54.98;98572.59;5083725;28;20310;-80
2023/03/22 06:17:56;;;;;;;;;;;;;;;14.01;54.59;98574.78;5083702;28;20294;-81
2023/03/22 06:20:21;;;;;;;;;;;;;;;14.04;54.73;98579.75;5101050;28;19916;-80
2023/03/22 06:22:47;;;;;;;;;;;;;;;14.05;54.58;98577.00;5084767;28;19916;-81
2023/03/22 06:25:13;;;;;;;;;;;;;;;14.07;54.09;98585.56;5084723;28;19923;-80
2023/03/22 06:27:39;;;;;;;;;;;;;;;14.13;53.87;98584.16;5101430;28;19922;-80
2023/03/22 06:30:05;;;;;;;;;;;;;;;14.18;53.79;98587.16;5101738;28;20310;-82
2023/03/22 06:32:30;;;;;;;;;;;;;;;14.23;53.59;98595.47;5101687;28;19916;-81
2023/03/22 06:34:56;;;;;;;;;;;;;;;14.22;53.67;98591.19;5084599;28;19995;-80
2023/03/22 06:37:21;;;;;;;;;;;;;;;14.23;53.45;98600.72;5084725;28;19923;-81
2023/03/22 06:39:46;;;;;;;;;;;;;;;14.20;53.54;98603.63;5084959;28;19951;-80
2023/03/22 06:42:12;;;;;;;;;;;;;;;14.19;53.70;98609.84;5084523;28;20358;-78
2023/03/22 06:44:38;;;;;;;;;;;;;;;14.19;53.34;98611.66;5084489;28;19916;-80
2023/03/22 06:47:03;;;;;;;;;;;;;;;14.19;53.23;98612.47;5084364;28;19916;-82
2023/03/22 06:49:30;;;;;;;;;;;;;;;14.16;53.24;98615.38;5085658;28;19920;-80
2023/03/22 06:51:55;;;;;;;;;;;;;;;14.11;53.14;98622.84;5083727;28;19924;-81
2023/03/22 06:54:21;;;;;;;;;;;;;;;14.07;53.18;98624.94;5081098;28;19965;-81
2023/03/22 06:56:46;;;;;;;;;;;;;;;14.07;53.16;98626.72;5081071;28;19969;-79
2023/03/22 06:59:11;;;;;;;;;;;;;;;14.05;53.17;98624.25;5081186;28;19916;-81
2023/03/22 07:01:37;;;;;;;;;;;;;;;14.05;53.32;98626.88;5097813;28;19976;-80
2023/03/22 07:04:02;;;;;;;;;;;;;;;14.07;53.27;98631.97;5080502;28;20014;-80
2023/03/22 07:06:27;;;;;;;;;;;;;;;14.07;53.25;98635.44;5080473;28;20012;-80
2023/03/22 07:08:53;;;;;;;;;;;;;;;14.08;53.26;98633.63;5080954;28;19923;-81
2023/03/22 07:11:18;;;;;;;;;;;;;;;14.10;53.29;98634.31;5097608;28;19922;-79
2023/03/22 07:13:44;;;;;;;;;;;;;;;14.10;53.15;98635.16;5115922;28;19916;-80
2023/03/22 07:16:09;;;;;;;;;;;;;;;14.11;53.05;98642.03;5080361;28;20010;-78
2023/03/22 07:18:35;;;;;;;;;;;;;;;14.15;52.87;98644.38;5080935;28;19923;-81
2023/03/22 07:21:00;;;;;;;;;;;;;;;14.15;52.88;98654.88;5098625;28;19961;-80
2023/03/22 07:23:26;;;;;;;;;;;;;;;14.12;52.77;98648.13;5098490;28;19916;-80
2023/03/22 07:25:51;;;;;;;;;;;;;;;14.14;52.75;98655.84;5080286;28;19975;-81
2023/03/22 07:28:16;;;;;;;;;;;;;;;14.16;52.79;98654.75;5080737;28;20394;-81
2023/03/22 07:30:42;;;;;;;;;;;;;;;14.19;52.74;98661.53;5081261;28;20394;-81
2023/03/22 07:33:07;;;;;;;;;;;;;;;14.20;52.64;98664.00;5081035;28;19923;-81
2023/03/22 07:35:33;;;;;;;;;;;;;;;14.21;52.61;98663.03;5080971;28;19923;-81
2023/03/22 07:37:58;;;;;;;;;;;;;;;14.23;52.61;98660.25;5098201;28;19959;-82
2023/03/22 07:40:24;;;;;;;;;;;;;;;14.25;52.56;98659.16;5083632;28;19922;-81
2023/03/22 07:42:49;;;;;;;;;;;;;;;14.30;52.50;98661.34;5081465;28;19915;-80
2023/03/22 07:45:15;;;;;;;;;;;;;;;14.33;52.22;98663.69;5080346;28;19919;-81
2023/03/22 07:47:41;;;;;;;;;;;;;;;14.33;52.23;98654.97;5080124;28;19923;-79
2023/03/22 07:50:06;;;;;;;;;;;;;;;14.36;52.30;98659.94;5097240;28;19924;-81
2023/03/22 07:52:32;;;;;;;;;;;;;;;14.37;52.22;98657.16;5098063;28;19926;-82
2023/03/22 07:54:57;;;;;;;;;;;;;;;14.40;52.19;98667.38;5080608;28;20014;-83
2023/03/22 07:57:22;;;;;;;;;;;;;;;14.46;52.21;98663.38;5080757;28;20014;-83
2023/03/22 07:59:48;;;;;;;;;;;;;;;14.55;52.05;98664.28;5080999;28;19989;-83
2023/03/22 08:02:13;;;;;;;;;;;;;;;14.68;51.89;98658.75;5080950;28;19916;-84
2023/03/22 08:04:38;;;;;;;;;;;;;;;14.79;51.59;98659.38;5080532;28;20006;-84
2023/03/22 08:07:04;;;;;;;;;;;;;;;14.91;51.50;98651.31;5080855;28;19938;-84
2023/03/22 08:09:30;;;;;;;;;;;;;;;15.06;51.28;98654.28;5080148;28;19927;-83
2023/03/22 08:11:55;;;;;;;;;;;;;;;15.18;51.08;98645.19;5080149;28;19919;-82
2023/03/22 08:14:20;;;;;;;;;;;;;;;15.32;50.83;98643.84;5115026;28;19972;-82
2023/03/22 08:16:46;;;;;;;;;;;;;;;15.45;50.61;98640.84;5096281;28;19959;-81
2023/03/22 08:19:11;;;;;;;;;;;;;;;15.61;50.41;98646.25;5080295;28;20034;-84
2023/03/22 08:21:36;;;;;;;;;;;;;;;15.74;50.07;98648.50;5079911;28;19916;-85
2023/03/22 08:24:06;;;;;;;;;;;;;;;15.95;49.62;98642.94;5080330;28;21538;-83
2023/03/22 08:26:31;;;;;;;;;;;;;;;16.17;48.98;98643.41;5081519;28;19915;-84
2023/03/22 08:28:57;;;;;;;;;;;;;;;16.35;48.53;98646.81;5079978;28;20409;-83
2023/03/22 08:31:22;;;;;;;;;;;;;;;16.53;48.27;98641.47;5097118;28;19951;-82
2023/03/22 08:33:48;;;;;;;;;;;;;;;16.74;47.49;98629.69;5080110;28;19915;-83
2023/03/22 08:36:17;;;;;;;;;;;;;;;16.88;47.34;98636.22;5079567;28;19916;-81
2023/03/22 08:38:43;;;;;;;;;;;;;;;17.03;47.06;98645.16;5098441;28;19920;-81
2023/03/22 08:41:09;;;;;;;;;;;;;;;17.17;46.72;98636.63;5080696;28;19955;-82
2023/03/22 08:43:34;;;;;;;;;;;;;;;17.36;46.20;98643.41;5097221;28;19957;-83
2023/03/22 08:46:00;;;;;;;;;;;;;;;17.55;46.04;98636.16;5080531;28;19915;-82
2023/03/22 08:48:27;;;;;;;;;;;;;;;17.76;45.52;98640.97;5097066;28;19924;-82
2023/03/22 08:50:53;;;;;;;;;;;;;;;18.00;44.87;98640.13;5101147;28;20010;-83
2023/03/22 08:53:18;;;;;;;;;;;;;;;18.19;44.15;98627.56;5098503;28;20016;-82
2023/03/22 08:55:44;;;;;;;;;;;;;;;18.41;43.46;98639.25;5096297;28;19916;-82
2023/03/22 08:58:12;;;;;;;;;;;;;;;18.58;43.12;98643.47;5079465;28;19922;-82
2023/03/22 09:00:38;;;;;;;;;;;;;;;18.75;42.70;98646.03;5096090;28;19973;-85
2023/03/22 09:03:03;;;;;;;;;;;;;;;18.89;42.24;98653.28;5079559;28;19916;-81
2023/03/22 09:05:29;;;;;;;;;;;;;;;19.02;42.09;98652.72;5079143;28;19922;-80
2023/03/22 09:07:55;;;;;;;;;;;;;;;19.07;41.82;98660.97;5096062;28;20444;-80
2023/03/22 09:10:20;;;;;;;;;;;;;;;19.11;41.26;98661.44;5095904;28;19915;-80
2023/03/22 09:12:47;;;;;;;;;;;;;;;19.20;40.92;98656.91;5079050;28;19943;-83
2023/03/22 09:15:12;;;;;;;;;;;;;;;19.18;40.68;98654.44;5078268;28;19965;-81
2023/03/22 09:17:38;;;;;;;;;;;;;;;19.19;40.45;98663.22;5078789;28;19915;-80
2023/03/22 09:20:04;;;;;;;;;;;;;;;19.22;40.25;98668.16;5078360;28;20039;-81
2023/03/22 09:22:29;;;;;;;;;;;;;;;19.23;40.12;98670.66;5078720;28;19972;-81
2023/03/22 09:24:55;;;;;;;;;;;;;;;19.25;40.07;98667.81;5079703;28;19938;-82
2023/03/22 09:27:20;;;;;;;;;;;;;;;19.16;40.10;98678.47;5095856;28;20298;-80
2023/03/22 09:29:45;;;;;;;;;;;;;;;19.15;39.98;98671.50;5079386;28;20010;-81
2023/03/22 09:32:11;;;;;;;;;;;;;;;19.22;39.85;98674.28;5095995;28;19927;-81
2023/03/22 09:34:36;;;;;;;;;;;;;;;19.26;39.63;98678.25;5079661;28;19916;-81
2023/03/22 09:37:02;;;;;;;;;;;;;;;19.32;39.30;98669.59;5095915;28;19915;-81
2023/03/22 09:39:28;;;;;;;;;;;;;;;19.41;39.03;98674.84;5079798;28;19919;-81
2023/03/22 09:41:54;;;;;;;;;;;;;;;19.53;38.83;98671.59;5079263;28;19916;-82
2023/03/22 09:44:30;;;;;;;;;;;;;;;19.57;38.65;98674.72;5095904;28;19915;-82
2023/03/22 09:46:58;;;;;;;;;;;;;;;19.68;38.38;98671.66;5095700;28;19965;-81
2023/03/22 09:49:25;;;;;;;;;;;;;;;19.63;38.35;98674.00;5096153;28;19919;-82
2023/03/22 09:51:51;;;;;;;;;;;;;;;19.71;38.28;98676.59;5096382;28;20291;-82
2023/03/22 09:54:20;;;;;;;;;;;;;;;19.76;38.04;98667.31;5096581;28;19915;-81
2023/03/22 09:56:48;;;;;;;;;;;;;;;19.73;38.29;98675.59;5095581;28;19934;-82
2023/03/22 09:59:14;;;;;;;;;;;;;;;19.67;38.22;98670.03;5095671;28;20349;-85
2023/03/22 10:01:49;;;;;;;;;;;;;;;19.65;38.37;98669.34;5096342;28;19994;-83
2023/03/22 10:04:33;;;;;;;;;;;;;;;19.69;38.39;98669.84;5096210;28;20283;-81
2023/03/22 10:07:02;;;;;;;;;;;;;;;19.59;38.67;98670.06;5096315;28;19959;-83
2023/03/22 10:09:34;;;;;;;;;;;;;;;19.50;38.74;98668.50;5095139;28;19916;-83
2023/03/22 10:12:03;;;;;;;;;;;;;;;19.42;39.11;98668.53;5095791;28;19916;-82
2023/03/22 10:14:33;;;;;;;;;;;;;;;19.33;39.27;98660.66;5113974;28;19916;-80
2023/03/22 10:17:02;;;;;;;;;;;;;;;19.31;39.29;98660.00;5095757;28;19916;-83
2023/03/22 10:19:34;;;;;;;;;;;;;;;19.36;39.34;98663.97;5095989;28;20358;-80
2023/03/22 10:22:01;;;;;;;;;;;;;;;19.48;39.19;98662.53;5097350;28;19922;-82
2023/03/22 10:24:30;;;;;;;;;;;;;;;19.70;38.65;98669.66;5079554;28;20374;-81
2023/03/22 10:26:56;;;;;;;;;;;;;;;19.96;38.29;98668.50;5094535;28;19962;-82
2023/03/22 10:29:37;;;;;;;;;;;;;;;20.25;37.96;98667.69;5082706;28;19962;-84
2023/03/22 10:32:15;;;;;;;;;;;;;;;20.76;37.02;98669.69;5099580;28;19919;-82
2023/03/22 10:34:42;;;;;;;;;;;;;;;21.13;36.46;98670.53;5099124;28;19916;-82
2023/03/22 10:37:08;;;;;;;;;;;;;;;21.43;36.35;98667.78;5100092;28;20280;-81
2023/03/22 10:39:40;;;;;;;;;;;;;;;21.88;35.54;98654.31;5100121;28;19922;-82
2023/03/22 10:42:10;;;;;;;;;;;;;;;21.63;35.93;98649.44;5099512;28;19963;-83
2023/03/22 10:44:46;;;;;;;;;;;;;;;21.56;35.98;98655.69;5099490;28;19920;-82
2023/03/22 10:47:12;;;;;;;;;;;;;;;21.66;35.53;98656.19;5098335;28;19978;-81
2023/03/22 10:49:38;;;;;;;;;;;;;;;21.73;35.23;98654.41;5082131;28;19919;-81
2023/03/22 10:52:22;;;;;;;;;;;;;;;21.55;35.54;98646.06;5098973;28;19923;-80
2023/03/22 10:54:47;;;;;;;;;;;;;;;21.53;35.26;98643.59;5098342;28;20007;-81
2023/03/22 10:57:13;;;;;;;;;;;;;;;21.48;35.34;98654.78;5081721;28;19966;-82
2023/03/22 10:59:43;;;;;;;;;;;;;;;21.42;35.40;98644.91;5081501;28;19923;-82
2023/03/22 11:02:25;;;;;;;;;;;;;;;21.47;35.08;98637.22;5099623;28;20006;-81
2023/03/22 11:04:57;;;;;;;;;;;;;;;21.51;35.27;98653.59;5098577;28;20010;-81
2023/03/22 11:07:33;;;;;;;;;;;;;;;21.36;35.13;98637.69;5097219;28;19981;-80
2023/03/22 11:10:07;;;;;;;;;;;;;;;21.20;35.41;98635.28;5116289;28;20019;-82
2023/03/22 11:12:33;;;;;;;;;;;;;;;20.96;35.42;98639.91;5116056;28;19927;-81
2023/03/22 11:14:58;;;;;;;;;;;;;;;20.84;35.54;98634.28;5098479;28;19916;-80
2023/03/22 11:17:27;;;;;;;;;;;;;;;20.75;35.55;98627.44;5097618;28;20394;-82
2023/03/22 11:19:53;;;;;;;;;;;;;;;20.74;35.43;98631.09;5082216;28;20364;-82
2023/03/22 11:22:18;;;;;;;;;;;;;;;20.89;35.29;98626.56;5097896;28;19951;-81
2023/03/22 11:24:44;;;;;;;;;;;;;;;21.05;34.79;98632.69;5097609;28;19966;-80
2023/03/22 11:27:17;;;;;;;;;;;;;;;21.12;34.51;98631.72;5098065;28;19973;-80
2023/03/22 11:29:44;;;;;;;;;;;;;;;21.08;34.16;98635.78;5097769;28;19924;-80
2023/03/22 11:32:25;;;;;;;;;;;;;;;21.03;34.35;98626.72;5097596;28;19959;-80
2023/03/22 11:35:00;;;;;;;;;;;;;;;20.91;34.33;98637.00;5113546;28;19916;-81
2023/03/22 11:37:25;;;;;;;;;;;;;;;20.74;34.53;98628.44;5097115;28;19940;-81
2023/03/22 11:39:51;;;;;;;;;;;;;;;20.72;34.79;98625.16;5079764;28;19973;-81
2023/03/22 11:42:19;;;;;;;;;;;;;;;20.72;34.80;98622.50;5097043;28;20006;-80
2023/03/22 11:44:45;;;;;;;;;;;;;;;20.68;34.98;98624.66;5097274;28;19955;-80
2023/03/22 11:47:11;;;;;;;;;;;;;;;20.62;34.77;98625.41;5097331;28;20429;-79
2023/03/22 11:49:38;;;;;;;;;;;;;;;20.55;35.10;98625.28;5096626;28;19924;-79
2023/03/22 11:52:10;;;;;;;;;;;;;;;20.51;35.03;98617.88;5080435;28;20010;-80
2023/03/22 11:54:36;;;;;;;;;;;;;;;20.51;35.29;98620.53;5097695;28;20003;-80
2023/03/22 11:57:03;;;;;;;;;;;;;;;20.51;35.26;98620.53;5079870;28;20352;-84
2023/03/22 11:59:38;;;;;;;;;;;;;;;20.49;35.43;98612.78;5096335;28;19916;-79
2023/03/22 12:02:15;;;;;;;;;;;;;;;20.54;35.32;98623.66;5114886;28;19973;-80
2023/03/22 12:04:41;;;;;;;;;;;;;;;20.57;35.31;98614.50;5096398;28;19916;-81
2023/03/22 12:07:13;;;;;;;;;;;;;;;20.59;35.24;98617.81;5080174;28;19998;-85
2023/03/22 12:09:42;;;;;;;;;;;;;;;20.64;35.08;98626.06;5097913;28;20389;-84
2023/03/22 12:12:21;;;;;;;;;;;;;;;20.63;34.90;98616.41;5098516;28;19919;-85
2023/03/22 12:14:51;;;;;;;;;;;;;;;20.62;34.82;98609.50;5097581;28;20065;-84
2023/03/22 12:17:40;;;;;;;;;;;;;;;20.58;34.82;98614.31;5097931;28;19973;-86
2023/03/22 12:20:28;;;;;;;;;;;;;;;20.59;34.67;98604.56;5036645;28;19917;-84
2023/03/22 12:22:53;;;;;;;;;;;;;;;20.56;34.75;98610.22;4979692;28;19939;-86
2023/03/22 12:25:21;;;;;;;;;;;;;;;20.53;34.91;98611.41;4996824;28;19929;-88
2023/03/22 12:27:52;;;;;;;;;;;;;;;20.52;34.69;98604.44;4995314;28;19921;-86
2023/03/22 12:30:21;;;;;;;;;;;;;;;20.47;34.92;98606.84;4994459;28;19969;-85
2023/03/22 12:32:58;;;;;;;;;;;;;;;20.41;34.98;98602.28;4994111;28;19918;-85
2023/03/22 12:35:24;;;;;;;;;;;;;;;20.35;35.18;98598.53;4995301;28;19918;-84
2023/03/22 12:37:53;;;;;;;;;;;;;;;20.30;35.25;98597.44;4992151;28;19918;-83
2023/03/22 12:40:21;;;;;;;;;;;;;;;20.13;35.32;98599.44;4992330;28;19928;-83
2023/03/22 12:42:47;;;;;;;;;;;;;;;20.08;35.60;98601.81;4992265;28;19922;-83
2023/03/22 12:45:13;;;;;;;;;;;;;;;20.00;35.70;98600.91;4976752;28;19918;-83
2023/03/22 12:47:40;;;;;;;;;;;;;;;19.94;35.73;98598.13;4992968;28;19917;-85
2023/03/22 12:50:13;;;;;;;;;;;;;;;19.87;36.09;98590.91;4991827;28;20022;-87